sensor_id;sensor_type;location;lat;lon;timestamp;temperature;humidity
3528;DHT22;1778;47.966;7.854;2023-06-14T00:00:15;15.90;58.00
3528;DHT22;1778;47.966;7.854;2023-06-14T00:01:18;15.90;57.60
3528;DHT22;1778;47.966;7.854;2023-06-14T00:02:21;15.90;57.30
3528;DHT22;1778;47.966;7.854;2023-06-14T00:03:23;15.90;57.80
3528;DHT22;1778;47.966;7.854;2023-06-14T00:04:26;15.90;58.00
3528;DHT22;1778;47.966;7.854;2023-06-14T00:05:28;15.90;58.00
3528;DHT22;1778;47.966;7.854;2023-06-14T00:06:31;15.90;58.60
3528;DHT22;1778;47.966;7.854;2023-06-14T00:07:37;15.90;58.80
3528;DHT22;1778;47.966;7.854;2023-06-14T00:08:40;15.80;58.80
3528;DHT22;1778;47.966;7.854;2023-06-14T00:09:41;15.80;58.80
3528;DHT22;1778;47.966;7.854;2023-06-14T00:10:43;15.60;59.20
3528;DHT22;1778;47.966;7.854;2023-06-14T00:11:45;15.50;58.80
3528;DHT22;1778;47.966;7.854;2023-06-14T00:12:46;15.40;59.10
3528;DHT22;1778;47.966;7.854;2023-06-14T00:13:48;15.40;59.80
3528;DHT22;1778;47.966;7.854;2023-06-14T00:14:50;15.30;59.70
3528;DHT22;1778;47.966;7.854;2023-06-14T00:15:52;15.30;60.20
3528;DHT22;1778;47.966;7.854;2023-06-14T00:16:56;15.30;60.60
3528;DHT22;1778;47.966;7.854;2023-06-14T00:18:01;15.20;59.90
3528;DHT22;1778;47.966;7.854;2023-06-14T00:19:03;15.30;59.90
3528;DHT22;1778;47.966;7.854;2023-06-14T00:20:06;15.20;59.90
3528;DHT22;1778;47.966;7.854;2023-06-14T00:21:07;15.10;60.40
3528;DHT22;1778;47.966;7.854;2023-06-14T00:22:10;15.20;60.30
3528;DHT22;1778;47.966;7.854;2023-06-14T00:23:12;15.30;60.50
3528;DHT22;1778;47.966;7.854;2023-06-14T00:24:14;15.30;60.00
3528;DHT22;1778;47.966;7.854;2023-06-14T00:25:16;15.30;60.00
3528;DHT22;1778;47.966;7.854;2023-06-14T00:26:30;15.30;60.30
3528;DHT22;1778;47.966;7.854;2023-06-14T00:27:32;15.30;60.50
3528;DHT22;1778;47.966;7.854;2023-06-14T00:28:33;15.30;61.00
3528;DHT22;1778;47.966;7.854;2023-06-14T00:29:35;15.30;61.50
3528;DHT22;1778;47.966;7.854;2023-06-14T00:30:37;15.40;63.30
3528;DHT22;1778;47.966;7.854;2023-06-14T00:31:39;15.30;62.30
3528;DHT22;1778;47.966;7.854;2023-06-14T00:32:41;15.20;62.50
3528;DHT22;1778;47.966;7.854;2023-06-14T00:33:44;15.20;63.00
3528;DHT22;1778;47.966;7.854;2023-06-14T00:34:46;15.10;62.30
3528;DHT22;1778;47.966;7.854;2023-06-14T00:35:47;15.10;62.50
3528;DHT22;1778;47.966;7.854;2023-06-14T00:36:49;15.10;63.20
3528;DHT22;1778;47.966;7.854;2023-06-14T00:37:51;15.10;63.40
3528;DHT22;1778;47.966;7.854;2023-06-14T00:38:52;15.00;64.10
3528;DHT22;1778;47.966;7.854;2023-06-14T00:39:56;15.00;64.00
3528;DHT22;1778;47.966;7.854;2023-06-14T00:40:57;15.00;64.00
3528;DHT22;1778;47.966;7.854;2023-06-14T00:41:59;15.00;64.40
3528;DHT22;1778;47.966;7.854;2023-06-14T00:43:00;15.00;65.00
3528;DHT22;1778;47.966;7.854;2023-06-14T00:44:02;15.10;64.80
3528;DHT22;1778;47.966;7.854;2023-06-14T00:45:04;15.00;64.30
3528;DHT22;1778;47.966;7.854;2023-06-14T00:46:06;15.00;64.80
3528;DHT22;1778;47.966;7.854;2023-06-14T00:47:10;15.00;64.10
3528;DHT22;1778;47.966;7.854;2023-06-14T00:48:13;15.00;65.00
3528;DHT22;1778;47.966;7.854;2023-06-14T00:49:17;15.00;65.50
3528;DHT22;1778;47.966;7.854;2023-06-14T00:50:20;15.00;65.40
3528;DHT22;1778;47.966;7.854;2023-06-14T00:51:22;15.00;65.00
3528;DHT22;1778;47.966;7.854;2023-06-14T00:52:24;15.00;65.60
3528;DHT22;1778;47.966;7.854;2023-06-14T00:53:26;15.00;65.00
3528;DHT22;1778;47.966;7.854;2023-06-14T00:54:28;15.00;65.00
3528;DHT22;1778;47.966;7.854;2023-06-14T00:55:30;14.90;65.20
3528;DHT22;1778;47.966;7.854;2023-06-14T00:56:32;14.80;65.00
3528;DHT22;1778;47.966;7.854;2023-06-14T00:57:33;14.80;67.30
3528;DHT22;1778;47.966;7.854;2023-06-14T00:58:39;14.90;67.20
3528;DHT22;1778;47.966;7.854;2023-06-14T00:59:45;14.90;66.90
3528;DHT22;1778;47.966;7.854;2023-06-14T01:00:47;14.80;66.80
3528;DHT22;1778;47.966;7.854;2023-06-14T01:01:49;14.80;67.90
3528;DHT22;1778;47.966;7.854;2023-06-14T01:02:51;14.90;68.80
3528;DHT22;1778;47.966;7.854;2023-06-14T01:03:53;14.80;68.70
3528;DHT22;1778;47.966;7.854;2023-06-14T01:04:54;14.80;69.20
3528;DHT22;1778;47.966;7.854;2023-06-14T01:08:14;14.80;70.00
3528;DHT22;1778;47.966;7.854;2023-06-14T01:10:53;14.70;71.40
3528;DHT22;1778;47.966;7.854;2023-06-14T01:12:13;14.70;72.00
3528;DHT22;1778;47.966;7.854;2023-06-14T01:13:36;14.70;72.30
3528;DHT22;1778;47.966;7.854;2023-06-14T01:14:39;14.60;73.30
3528;DHT22;1778;47.966;7.854;2023-06-14T01:15:44;14.60;73.10
3528;DHT22;1778;47.966;7.854;2023-06-14T01:16:47;14.60;73.50
3528;DHT22;1778;47.966;7.854;2023-06-14T01:17:50;14.60;73.10
3528;DHT22;1778;47.966;7.854;2023-06-14T01:18:53;14.60;73.30
3528;DHT22;1778;47.966;7.854;2023-06-14T01:20:04;14.60;73.50
3528;DHT22;1778;47.966;7.854;2023-06-14T01:21:24;14.50;73.60
3528;DHT22;1778;47.966;7.854;2023-06-14T01:22:26;14.50;74.10
3528;DHT22;1778;47.966;7.854;2023-06-14T01:23:29;14.50;73.90
3528;DHT22;1778;47.966;7.854;2023-06-14T01:24:33;14.50;73.60
3528;DHT22;1778;47.966;7.854;2023-06-14T01:25:36;14.50;73.60
3528;DHT22;1778;47.966;7.854;2023-06-14T01:26:39;14.40;74.00
3528;DHT22;1778;47.966;7.854;2023-06-14T01:28:10;14.40;74.30
3528;DHT22;1778;47.966;7.854;2023-06-14T01:29:14;14.40;75.00
3528;DHT22;1778;47.966;7.854;2023-06-14T01:30:20;14.40;74.80
3528;DHT22;1778;47.966;7.854;2023-06-14T01:31:23;14.40;75.10
3528;DHT22;1778;47.966;7.854;2023-06-14T01:32:26;14.40;75.70
3528;DHT22;1778;47.966;7.854;2023-06-14T01:33:29;14.30;75.60
3528;DHT22;1778;47.966;7.854;2023-06-14T01:34:32;14.30;76.00
3528;DHT22;1778;47.966;7.854;2023-06-14T01:35:34;14.30;75.80
3528;DHT22;1778;47.966;7.854;2023-06-14T01:36:37;14.30;75.10
3528;DHT22;1778;47.966;7.854;2023-06-14T01:37:40;14.30;75.30
3528;DHT22;1778;47.966;7.854;2023-06-14T01:38:43;14.30;76.00
3528;DHT22;1778;47.966;7.854;2023-06-14T01:39:47;14.30;76.70
3528;DHT22;1778;47.966;7.854;2023-06-14T01:40:55;14.30;76.00
3528;DHT22;1778;47.966;7.854;2023-06-14T01:42:00;14.30;77.10
3528;DHT22;1778;47.966;7.854;2023-06-14T01:43:03;14.30;75.90
3528;DHT22;1778;47.966;7.854;2023-06-14T01:44:05;14.20;76.20
3528;DHT22;1778;47.966;7.854;2023-06-14T01:45:09;14.20;76.00
3528;DHT22;1778;47.966;7.854;2023-06-14T01:46:12;14.20;76.50
3528;DHT22;1778;47.966;7.854;2023-06-14T01:47:14;14.10;76.30
3528;DHT22;1778;47.966;7.854;2023-06-14T01:48:16;14.10;76.20
3528;DHT22;1778;47.966;7.854;2023-06-14T01:49:18;14.10;76.50
3528;DHT22;1778;47.966;7.854;2023-06-14T01:50:21;14.10;76.50
3528;DHT22;1778;47.966;7.854;2023-06-14T01:51:23;14.10;77.10
3528;DHT22;1778;47.966;7.854;2023-06-14T01:52:24;14.10;77.10
3528;DHT22;1778;47.966;7.854;2023-06-14T01:53:26;14.10;77.10
3528;DHT22;1778;47.966;7.854;2023-06-14T01:54:27;14.10;77.30
3528;DHT22;1778;47.966;7.854;2023-06-14T01:55:30;14.10;77.40
3528;DHT22;1778;47.966;7.854;2023-06-14T01:56:41;14.00;77.40
3528;DHT22;1778;47.966;7.854;2023-06-14T01:57:42;14.00;77.70
3528;DHT22;1778;47.966;7.854;2023-06-14T01:58:44;14.00;77.80
3528;DHT22;1778;47.966;7.854;2023-06-14T01:59:46;14.00;78.80
3528;DHT22;1778;47.966;7.854;2023-06-14T02:00:49;14.00;78.60
3528;DHT22;1778;47.966;7.854;2023-06-14T02:01:53;14.00;78.80
3528;DHT22;1778;47.966;7.854;2023-06-14T02:02:55;13.90;79.20
3528;DHT22;1778;47.966;7.854;2023-06-14T02:03:57;14.00;79.70
3528;DHT22;1778;47.966;7.854;2023-06-14T02:04:58;14.00;80.00
3528;DHT22;1778;47.966;7.854;2023-06-14T02:06:00;14.00;79.50
3528;DHT22;1778;47.966;7.854;2023-06-14T02:07:02;14.00;79.40
3528;DHT22;1778;47.966;7.854;2023-06-14T02:08:03;13.90;79.50
3528;DHT22;1778;47.966;7.854;2023-06-14T02:09:05;13.90;79.90
3528;DHT22;1778;47.966;7.854;2023-06-14T02:10:07;13.80;80.30
3528;DHT22;1778;47.966;7.854;2023-06-14T02:11:09;13.80;80.30
3528;DHT22;1778;47.966;7.854;2023-06-14T02:12:11;13.80;80.40
3528;DHT22;1778;47.966;7.854;2023-06-14T02:13:13;13.80;80.80
3528;DHT22;1778;47.966;7.854;2023-06-14T02:14:14;13.80;81.20
3528;DHT22;1778;47.966;7.854;2023-06-14T02:15:18;13.80;81.30
3528;DHT22;1778;47.966;7.854;2023-06-14T02:16:20;13.70;81.30
3528;DHT22;1778;47.966;7.854;2023-06-14T02:17:23;13.70;81.50
3528;DHT22;1778;47.966;7.854;2023-06-14T02:18:28;13.70;81.70
3528;DHT22;1778;47.966;7.854;2023-06-14T02:19:30;13.70;82.00
3528;DHT22;1778;47.966;7.854;2023-06-14T02:20:32;13.60;82.60
3528;DHT22;1778;47.966;7.854;2023-06-14T02:21:34;13.60;83.10
3528;DHT22;1778;47.966;7.854;2023-06-14T02:22:36;13.70;83.40
3528;DHT22;1778;47.966;7.854;2023-06-14T02:23:40;13.60;83.30
3528;DHT22;1778;47.966;7.854;2023-06-14T02:24:42;13.60;83.30
3528;DHT22;1778;47.966;7.854;2023-06-14T02:25:44;13.60;83.30
3528;DHT22;1778;47.966;7.854;2023-06-14T02:26:47;13.60;83.40
3528;DHT22;1778;47.966;7.854;2023-06-14T02:27:49;13.50;83.50
3528;DHT22;1778;47.966;7.854;2023-06-14T02:28:51;13.50;83.80
3528;DHT22;1778;47.966;7.854;2023-06-14T02:29:53;13.50;83.90
3528;DHT22;1778;47.966;7.854;2023-06-14T02:30:54;13.40;84.00
3528;DHT22;1778;47.966;7.854;2023-06-14T02:31:57;13.40;84.30
3528;DHT22;1778;47.966;7.854;2023-06-14T02:32:59;13.40;84.70
3528;DHT22;1778;47.966;7.854;2023-06-14T02:34:01;13.40;85.70
3528;DHT22;1778;47.966;7.854;2023-06-14T02:35:03;13.30;85.70
3528;DHT22;1778;47.966;7.854;2023-06-14T02:36:06;13.30;86.00
3528;DHT22;1778;47.966;7.854;2023-06-14T02:37:08;13.30;85.80
3528;DHT22;1778;47.966;7.854;2023-06-14T02:38:10;13.30;85.60
3528;DHT22;1778;47.966;7.854;2023-06-14T02:39:13;13.20;86.00
3528;DHT22;1778;47.966;7.854;2023-06-14T02:40:17;13.20;86.80
3528;DHT22;1778;47.966;7.854;2023-06-14T02:41:19;13.30;87.40
3528;DHT22;1778;47.966;7.854;2023-06-14T02:42:21;13.20;87.60
3528;DHT22;1778;47.966;7.854;2023-06-14T02:43:23;13.20;88.20
3528;DHT22;1778;47.966;7.854;2023-06-14T02:44:25;13.20;88.20
3528;DHT22;1778;47.966;7.854;2023-06-14T02:45:30;13.20;88.10
3528;DHT22;1778;47.966;7.854;2023-06-14T02:46:31;13.20;87.60
3528;DHT22;1778;47.966;7.854;2023-06-14T02:47:33;13.20;87.50
3528;DHT22;1778;47.966;7.854;2023-06-14T02:48:35;13.10;87.60
3528;DHT22;1778;47.966;7.854;2023-06-14T02:49:37;13.20;88.40
3528;DHT22;1778;47.966;7.854;2023-06-14T02:50:38;13.20;88.20
3528;DHT22;1778;47.966;7.854;2023-06-14T02:51:41;13.10;88.30
3528;DHT22;1778;47.966;7.854;2023-06-14T02:52:43;13.10;88.80
3528;DHT22;1778;47.966;7.854;2023-06-14T02:53:46;13.10;89.10
3528;DHT22;1778;47.966;7.854;2023-06-14T02:54:47;13.10;89.60
3528;DHT22;1778;47.966;7.854;2023-06-14T02:55:49;13.10;89.90
3528;DHT22;1778;47.966;7.854;2023-06-14T02:56:52;13.10;90.10
3528;DHT22;1778;47.966;7.854;2023-06-14T02:57:54;13.10;90.30
3528;DHT22;1778;47.966;7.854;2023-06-14T02:58:56;13.10;90.50
3528;DHT22;1778;47.966;7.854;2023-06-14T02:59:58;13.00;90.40
3528;DHT22;1778;47.966;7.854;2023-06-14T03:01:00;13.00;90.40
3528;DHT22;1778;47.966;7.854;2023-06-14T03:02:04;13.00;90.40
3528;DHT22;1778;47.966;7.854;2023-06-14T03:03:07;13.00;90.60
3528;DHT22;1778;47.966;7.854;2023-06-14T03:04:20;13.00;90.80
3528;DHT22;1778;47.966;7.854;2023-06-14T03:05:22;13.00;90.90
3528;DHT22;1778;47.966;7.854;2023-06-14T03:06:24;13.00;91.00
3528;DHT22;1778;47.966;7.854;2023-06-14T03:07:28;13.00;90.90
3528;DHT22;1778;47.966;7.854;2023-06-14T03:08:32;13.00;90.80
3528;DHT22;1778;47.966;7.854;2023-06-14T03:09:44;13.00;90.70
3528;DHT22;1778;47.966;7.854;2023-06-14T03:10:47;12.90;90.70
3528;DHT22;1778;47.966;7.854;2023-06-14T03:11:48;12.90;91.00
3528;DHT22;1778;47.966;7.854;2023-06-14T03:12:50;12.90;91.10
3528;DHT22;1778;47.966;7.854;2023-06-14T03:13:54;12.90;91.40
3528;DHT22;1778;47.966;7.854;2023-06-14T03:14:59;12.90;91.50
3528;DHT22;1778;47.966;7.854;2023-06-14T03:16:10;12.90;91.60
3528;DHT22;1778;47.966;7.854;2023-06-14T03:17:13;12.90;91.80
3528;DHT22;1778;47.966;7.854;2023-06-14T03:18:16;12.90;91.80
3528;DHT22;1778;47.966;7.854;2023-06-14T03:19:18;12.80;91.80
3528;DHT22;1778;47.966;7.854;2023-06-14T03:20:19;12.80;91.70
3528;DHT22;1778;47.966;7.854;2023-06-14T03:21:22;12.80;91.90
3528;DHT22;1778;47.966;7.854;2023-06-14T03:22:24;12.80;92.20
3528;DHT22;1778;47.966;7.854;2023-06-14T03:23:27;12.80;92.40
3528;DHT22;1778;47.966;7.854;2023-06-14T03:24:29;12.80;92.40
3528;DHT22;1778;47.966;7.854;2023-06-14T03:25:33;12.80;92.20
3528;DHT22;1778;47.966;7.854;2023-06-14T03:26:37;12.80;92.10
3528;DHT22;1778;47.966;7.854;2023-06-14T03:27:39;12.70;92.10
3528;DHT22;1778;47.966;7.854;2023-06-14T03:28:41;12.80;92.30
3528;DHT22;1778;47.966;7.854;2023-06-14T03:29:44;12.80;92.30
3528;DHT22;1778;47.966;7.854;2023-06-14T03:30:46;12.90;92.70
3528;DHT22;1778;47.966;7.854;2023-06-14T03:32:01;12.80;92.40
3528;DHT22;1778;47.966;7.854;2023-06-14T03:33:12;12.80;92.50
3528;DHT22;1778;47.966;7.854;2023-06-14T03:34:15;12.80;92.70
3528;DHT22;1778;47.966;7.854;2023-06-14T03:35:17;12.80;93.00
3528;DHT22;1778;47.966;7.854;2023-06-14T03:36:21;12.80;93.00
3528;DHT22;1778;47.966;7.854;2023-06-14T03:37:22;12.80;92.80
3528;DHT22;1778;47.966;7.854;2023-06-14T03:38:24;12.80;92.90
3528;DHT22;1778;47.966;7.854;2023-06-14T03:39:27;12.80;93.20
3528;DHT22;1778;47.966;7.854;2023-06-14T03:40:29;12.80;93.20
3528;DHT22;1778;47.966;7.854;2023-06-14T03:41:35;12.80;93.30
3528;DHT22;1778;47.966;7.854;2023-06-14T03:42:37;12.80;93.00
3528;DHT22;1778;47.966;7.854;2023-06-14T03:43:39;12.70;93.10
3528;DHT22;1778;47.966;7.854;2023-06-14T03:44:41;12.70;93.10
3528;DHT22;1778;47.966;7.854;2023-06-14T03:45:43;12.80;93.20
3528;DHT22;1778;47.966;7.854;2023-06-14T03:46:46;12.80;93.60
3528;DHT22;1778;47.966;7.854;2023-06-14T03:47:48;12.80;93.90
3528;DHT22;1778;47.966;7.854;2023-06-14T03:48:52;12.80;93.70
3528;DHT22;1778;47.966;7.854;2023-06-14T03:49:54;12.80;93.50
3528;DHT22;1778;47.966;7.854;2023-06-14T03:50:55;12.80;93.50
3528;DHT22;1778;47.966;7.854;2023-06-14T03:52:01;12.80;93.60
3528;DHT22;1778;47.966;7.854;2023-06-14T03:53:05;12.80;93.80
3528;DHT22;1778;47.966;7.854;2023-06-14T03:54:06;12.80;93.80
3528;DHT22;1778;47.966;7.854;2023-06-14T03:55:29;12.80;93.60
3528;DHT22;1778;47.966;7.854;2023-06-14T03:56:36;12.90;93.90
3528;DHT22;1778;47.966;7.854;2023-06-14T03:57:40;12.90;94.60
3528;DHT22;1778;47.966;7.854;2023-06-14T03:58:45;12.90;94.30
3528;DHT22;1778;47.966;7.854;2023-06-14T03:59:46;12.90;94.20
3528;DHT22;1778;47.966;7.854;2023-06-14T04:00:48;12.90;94.30
3528;DHT22;1778;47.966;7.854;2023-06-14T04:01:50;12.90;94.50
3528;DHT22;1778;47.966;7.854;2023-06-14T04:02:52;12.90;94.50
3528;DHT22;1778;47.966;7.854;2023-06-14T04:03:56;12.90;94.30
3528;DHT22;1778;47.966;7.854;2023-06-14T04:05:00;12.90;94.40
3528;DHT22;1778;47.966;7.854;2023-06-14T04:06:17;12.90;94.50
3528;DHT22;1778;47.966;7.854;2023-06-14T04:07:22;12.80;94.60
3528;DHT22;1778;47.966;7.854;2023-06-14T04:08:23;12.80;94.70
3528;DHT22;1778;47.966;7.854;2023-06-14T04:09:26;12.80;94.70
3528;DHT22;1778;47.966;7.854;2023-06-14T04:10:28;12.80;94.50
3528;DHT22;1778;47.966;7.854;2023-06-14T04:11:30;12.80;94.70
3528;DHT22;1778;47.966;7.854;2023-06-14T04:12:32;12.90;95.10
3528;DHT22;1778;47.966;7.854;2023-06-14T04:13:34;12.90;95.30
3528;DHT22;1778;47.966;7.854;2023-06-14T04:14:36;12.90;95.30
3528;DHT22;1778;47.966;7.854;2023-06-14T04:15:38;12.90;95.50
3528;DHT22;1778;47.966;7.854;2023-06-14T04:16:46;12.90;95.70
3528;DHT22;1778;47.966;7.854;2023-06-14T04:17:50;13.00;95.80
3528;DHT22;1778;47.966;7.854;2023-06-14T04:18:55;13.00;95.90
3528;DHT22;1778;47.966;7.854;2023-06-14T04:19:57;13.00;96.10
3528;DHT22;1778;47.966;7.854;2023-06-14T04:20:59;13.00;96.50
3528;DHT22;1778;47.966;7.854;2023-06-14T04:22:03;12.90;96.60
3528;DHT22;1778;47.966;7.854;2023-06-14T04:23:15;12.90;96.80
3528;DHT22;1778;47.966;7.854;2023-06-14T04:24:19;13.00;97.20
3528;DHT22;1778;47.966;7.854;2023-06-14T04:25:23;13.00;97.00
3528;DHT22;1778;47.966;7.854;2023-06-14T04:26:27;13.00;96.70
3528;DHT22;1778;47.966;7.854;2023-06-14T04:27:31;13.00;96.90
3528;DHT22;1778;47.966;7.854;2023-06-14T04:28:38;13.00;97.30
3528;DHT22;1778;47.966;7.854;2023-06-14T04:29:44;12.90;97.40
3528;DHT22;1778;47.966;7.854;2023-06-14T04:30:48;13.00;97.70
3528;DHT22;1778;47.966;7.854;2023-06-14T04:31:54;12.90;97.60
3528;DHT22;1778;47.966;7.854;2023-06-14T04:33:00;12.90;98.20
3528;DHT22;1778;47.966;7.854;2023-06-14T04:34:02;12.90;98.70
3528;DHT22;1778;47.966;7.854;2023-06-14T04:35:07;13.00;98.50
3528;DHT22;1778;47.966;7.854;2023-06-14T04:36:12;13.00;98.30
3528;DHT22;1778;47.966;7.854;2023-06-14T04:37:14;13.00;98.30
3528;DHT22;1778;47.966;7.854;2023-06-14T04:38:16;13.00;98.30
3528;DHT22;1778;47.966;7.854;2023-06-14T04:39:20;13.00;98.40
3528;DHT22;1778;47.966;7.854;2023-06-14T04:40:23;12.90;98.50
3528;DHT22;1778;47.966;7.854;2023-06-14T04:41:24;13.00;99.10
3528;DHT22;1778;47.966;7.854;2023-06-14T04:42:32;13.00;99.10
3528;DHT22;1778;47.966;7.854;2023-06-14T04:43:34;12.90;99.10
3528;DHT22;1778;47.966;7.854;2023-06-14T04:44:42;12.90;99.40
3528;DHT22;1778;47.966;7.854;2023-06-14T04:45:45;13.00;99.80
3528;DHT22;1778;47.966;7.854;2023-06-14T04:46:48;13.00;99.90
3528;DHT22;1778;47.966;7.854;2023-06-14T04:47:55;13.00;99.30
3528;DHT22;1778;47.966;7.854;2023-06-14T04:49:01;13.00;99.20
3528;DHT22;1778;47.966;7.854;2023-06-14T04:50:04;13.00;99.10
3528;DHT22;1778;47.966;7.854;2023-06-14T04:51:07;13.00;99.10
3528;DHT22;1778;47.966;7.854;2023-06-14T04:52:08;13.00;99.00
3528;DHT22;1778;47.966;7.854;2023-06-14T04:53:14;13.10;99.00
3528;DHT22;1778;47.966;7.854;2023-06-14T04:54:16;13.10;99.10
3528;DHT22;1778;47.966;7.854;2023-06-14T04:55:20;13.10;99.00
3528;DHT22;1778;47.966;7.854;2023-06-14T04:56:23;13.20;99.10
3528;DHT22;1778;47.966;7.854;2023-06-14T04:57:26;13.30;99.10
3528;DHT22;1778;47.966;7.854;2023-06-14T04:58:32;13.30;99.10
3528;DHT22;1778;47.966;7.854;2023-06-14T04:59:33;13.30;99.10
3528;DHT22;1778;47.966;7.854;2023-06-14T05:00:36;13.40;99.00
3528;DHT22;1778;47.966;7.854;2023-06-14T05:01:38;13.50;98.80
3528;DHT22;1778;47.966;7.854;2023-06-14T05:02:40;13.50;98.80
3528;DHT22;1778;47.966;7.854;2023-06-14T05:03:42;13.50;98.70
3528;DHT22;1778;47.966;7.854;2023-06-14T05:04:46;13.60;98.70
3528;DHT22;1778;47.966;7.854;2023-06-14T05:05:49;13.60;98.70
3528;DHT22;1778;47.966;7.854;2023-06-14T05:06:51;13.60;98.70
3528;DHT22;1778;47.966;7.854;2023-06-14T05:07:56;13.70;98.90
3528;DHT22;1778;47.966;7.854;2023-06-14T05:08:58;13.70;98.70
3528;DHT22;1778;47.966;7.854;2023-06-14T05:10:00;13.80;98.60
3528;DHT22;1778;47.966;7.854;2023-06-14T05:11:03;13.80;98.30
3528;DHT22;1778;47.966;7.854;2023-06-14T05:12:05;13.80;98.40
3528;DHT22;1778;47.966;7.854;2023-06-14T05:13:09;13.90;98.30
3528;DHT22;1778;47.966;7.854;2023-06-14T05:14:12;14.00;98.20
3528;DHT22;1778;47.966;7.854;2023-06-14T05:15:14;14.10;97.70
3528;DHT22;1778;47.966;7.854;2023-06-14T05:16:17;14.20;97.40
3528;DHT22;1778;47.966;7.854;2023-06-14T05:17:21;14.20;97.30
3528;DHT22;1778;47.966;7.854;2023-06-14T05:18:24;14.20;97.30
3528;DHT22;1778;47.966;7.854;2023-06-14T05:19:29;14.20;97.60
3528;DHT22;1778;47.966;7.854;2023-06-14T05:20:30;14.20;97.40
3528;DHT22;1778;47.966;7.854;2023-06-14T05:21:32;14.30;97.60
3528;DHT22;1778;47.966;7.854;2023-06-14T05:22:42;14.30;97.70
3528;DHT22;1778;47.966;7.854;2023-06-14T05:23:44;14.40;97.60
3528;DHT22;1778;47.966;7.854;2023-06-14T05:24:46;14.40;97.70
3528;DHT22;1778;47.966;7.854;2023-06-14T05:25:49;14.50;97.90
3528;DHT22;1778;47.966;7.854;2023-06-14T05:26:51;14.50;97.50
3528;DHT22;1778;47.966;7.854;2023-06-14T05:27:53;14.50;97.20
3528;DHT22;1778;47.966;7.854;2023-06-14T05:28:57;14.60;97.20
3528;DHT22;1778;47.966;7.854;2023-06-14T05:29:59;14.60;97.00
3528;DHT22;1778;47.966;7.854;2023-06-14T05:31:01;14.70;96.60
3528;DHT22;1778;47.966;7.854;2023-06-14T05:32:03;14.70;96.60
3528;DHT22;1778;47.966;7.854;2023-06-14T05:33:05;14.80;96.70
3528;DHT22;1778;47.966;7.854;2023-06-14T05:34:07;14.80;96.30
3528;DHT22;1778;47.966;7.854;2023-06-14T05:35:09;14.90;96.20
3528;DHT22;1778;47.966;7.854;2023-06-14T05:36:12;14.90;96.20
3528;DHT22;1778;47.966;7.854;2023-06-14T05:37:13;15.00;96.00
3528;DHT22;1778;47.966;7.854;2023-06-14T05:38:15;15.00;95.90
3528;DHT22;1778;47.966;7.854;2023-06-14T05:39:16;15.10;96.30
3528;DHT22;1778;47.966;7.854;2023-06-14T05:40:18;15.10;96.20
3528;DHT22;1778;47.966;7.854;2023-06-14T05:41:20;15.20;95.90
3528;DHT22;1778;47.966;7.854;2023-06-14T05:42:22;15.20;95.60
3528;DHT22;1778;47.966;7.854;2023-06-14T05:43:24;15.20;95.20
3528;DHT22;1778;47.966;7.854;2023-06-14T05:44:26;15.30;95.40
3528;DHT22;1778;47.966;7.854;2023-06-14T05:45:28;15.30;95.50
3528;DHT22;1778;47.966;7.854;2023-06-14T05:46:29;15.20;95.20
3528;DHT22;1778;47.966;7.854;2023-06-14T05:47:31;15.10;95.20
3528;DHT22;1778;47.966;7.854;2023-06-14T05:48:33;15.10;95.10
3528;DHT22;1778;47.966;7.854;2023-06-14T05:49:35;15.10;94.90
3528;DHT22;1778;47.966;7.854;2023-06-14T05:50:37;15.10;95.30
3528;DHT22;1778;47.966;7.854;2023-06-14T05:51:38;15.20;95.10
3528;DHT22;1778;47.966;7.854;2023-06-14T05:52:39;15.20;95.50
3528;DHT22;1778;47.966;7.854;2023-06-14T05:53:41;15.30;95.50
3528;DHT22;1778;47.966;7.854;2023-06-14T05:54:43;15.30;95.20
3528;DHT22;1778;47.966;7.854;2023-06-14T05:55:44;15.40;95.20
3528;DHT22;1778;47.966;7.854;2023-06-14T05:56:46;15.50;94.80
3528;DHT22;1778;47.966;7.854;2023-06-14T05:57:48;15.50;94.80
3528;DHT22;1778;47.966;7.854;2023-06-14T05:58:49;15.50;94.60
3528;DHT22;1778;47.966;7.854;2023-06-14T05:59:52;15.60;94.90
3528;DHT22;1778;47.966;7.854;2023-06-14T06:00:53;15.60;95.00
3528;DHT22;1778;47.966;7.854;2023-06-14T06:01:55;15.60;95.00
3528;DHT22;1778;47.966;7.854;2023-06-14T06:02:57;15.70;95.00
3528;DHT22;1778;47.966;7.854;2023-06-14T06:03:59;15.80;94.60
3528;DHT22;1778;47.966;7.854;2023-06-14T06:05:01;15.80;94.60
3528;DHT22;1778;47.966;7.854;2023-06-14T06:06:03;15.90;94.40
3528;DHT22;1778;47.966;7.854;2023-06-14T06:07:05;15.90;94.20
3528;DHT22;1778;47.966;7.854;2023-06-14T06:08:07;16.10;94.70
3528;DHT22;1778;47.966;7.854;2023-06-14T06:09:08;16.10;95.00
3528;DHT22;1778;47.966;7.854;2023-06-14T06:10:10;16.10;94.70
3528;DHT22;1778;47.966;7.854;2023-06-14T06:11:12;16.20;94.90
3528;DHT22;1778;47.966;7.854;2023-06-14T06:12:14;16.20;94.20
3528;DHT22;1778;47.966;7.854;2023-06-14T06:13:16;16.20;94.20
3528;DHT22;1778;47.966;7.854;2023-06-14T06:14:18;16.10;94.50
3528;DHT22;1778;47.966;7.854;2023-06-14T06:15:20;16.20;94.80
3528;DHT22;1778;47.966;7.854;2023-06-14T06:16:21;16.20;95.00
3528;DHT22;1778;47.966;7.854;2023-06-14T06:17:27;16.20;95.20
3528;DHT22;1778;47.966;7.854;2023-06-14T06:18:47;16.20;95.10
3528;DHT22;1778;47.966;7.854;2023-06-14T06:19:48;16.30;95.40
3528;DHT22;1778;47.966;7.854;2023-06-14T06:20:50;16.30;95.90
3528;DHT22;1778;47.966;7.854;2023-06-14T06:21:51;16.30;95.60
3528;DHT22;1778;47.966;7.854;2023-06-14T06:22:53;16.30;94.70
3528;DHT22;1778;47.966;7.854;2023-06-14T06:23:54;16.30;94.00
3528;DHT22;1778;47.966;7.854;2023-06-14T06:24:56;16.30;94.10
3528;DHT22;1778;47.966;7.854;2023-06-14T06:25:58;16.30;94.00
3528;DHT22;1778;47.966;7.854;2023-06-14T06:27:00;16.40;94.40
3528;DHT22;1778;47.966;7.854;2023-06-14T06:28:02;16.50;94.40
3528;DHT22;1778;47.966;7.854;2023-06-14T06:29:03;16.60;94.50
3528;DHT22;1778;47.966;7.854;2023-06-14T06:30:05;16.60;94.40
3528;DHT22;1778;47.966;7.854;2023-06-14T06:31:07;16.60;94.90
3528;DHT22;1778;47.966;7.854;2023-06-14T06:32:09;16.70;95.50
3528;DHT22;1778;47.966;7.854;2023-06-14T06:33:10;16.70;95.50
3528;DHT22;1778;47.966;7.854;2023-06-14T06:34:13;16.70;95.20
3528;DHT22;1778;47.966;7.854;2023-06-14T06:35:14;16.80;95.30
3528;DHT22;1778;47.966;7.854;2023-06-14T06:36:17;16.90;95.40
3528;DHT22;1778;47.966;7.854;2023-06-14T06:37:19;17.00;95.30
3528;DHT22;1778;47.966;7.854;2023-06-14T06:38:21;17.10;94.60
3528;DHT22;1778;47.966;7.854;2023-06-14T06:39:23;17.10;92.90
3528;DHT22;1778;47.966;7.854;2023-06-14T06:40:24;17.30;92.60
3528;DHT22;1778;47.966;7.854;2023-06-14T06:41:26;17.30;91.70
3528;DHT22;1778;47.966;7.854;2023-06-14T06:42:28;17.40;90.40
3528;DHT22;1778;47.966;7.854;2023-06-14T06:43:32;17.50;90.50
3528;DHT22;1778;47.966;7.854;2023-06-14T06:44:36;17.60;90.10
3528;DHT22;1778;47.966;7.854;2023-06-14T06:45:37;17.70;90.00
3528;DHT22;1778;47.966;7.854;2023-06-14T06:46:39;17.80;89.40
3528;DHT22;1778;47.966;7.854;2023-06-14T06:47:42;17.90;90.30
3528;DHT22;1778;47.966;7.854;2023-06-14T06:48:44;17.90;91.10
3528;DHT22;1778;47.966;7.854;2023-06-14T06:49:46;18.00;91.50
3528;DHT22;1778;47.966;7.854;2023-06-14T06:50:47;18.10;91.40
3528;DHT22;1778;47.966;7.854;2023-06-14T06:52:05;18.10;91.90
3528;DHT22;1778;47.966;7.854;2023-06-14T06:53:07;18.20;92.10
3528;DHT22;1778;47.966;7.854;2023-06-14T06:54:10;18.20;91.80
3528;DHT22;1778;47.966;7.854;2023-06-14T06:55:12;18.20;91.60
3528;DHT22;1778;47.966;7.854;2023-06-14T06:56:15;18.20;91.90